createdAt,value
2023-05-02T00:01:11.534Z,12.11
2023-05-02T00:03:43.151Z,12.17
2023-05-02T00:06:11.432Z,12.18
2023-05-02T00:08:39.299Z,12.24
2023-05-02T00:11:07.260Z,12.24
2023-05-02T00:13:35.663Z,12.29
2023-05-02T00:16:03.804Z,12.35
2023-05-02T00:18:31.941Z,12.32
2023-05-02T00:21:01.438Z,12.35
2023-05-02T00:23:29.422Z,12.23
2023-05-02T00:25:57.433Z,12.09
2023-05-02T00:28:26.632Z,12.03
2023-05-02T00:30:54.915Z,12.04
2023-05-02T00:33:23.060Z,12.03
2023-05-02T00:35:51.454Z,12.01
2023-05-02T00:38:21.063Z,11.99
2023-05-02T00:40:51.390Z,12.02
2023-05-02T00:43:19.717Z,12.00
2023-05-02T00:45:48.003Z,12.03
2023-05-02T00:48:19.371Z,12.08
2023-05-02T00:50:47.459Z,12.14
2023-05-02T00:53:16.451Z,12.22
2023-05-02T00:55:46.489Z,12.27
2023-05-02T00:58:16.736Z,12.28
2023-05-02T01:00:59.950Z,12.12
2023-05-02T01:03:41.296Z,11.97
2023-05-02T01:06:21.111Z,12.05
2023-05-02T01:09:04.320Z,12.09
2023-05-02T01:11:41.029Z,12.05
2023-05-02T01:14:13.676Z,12.03
2023-05-02T01:16:44.951Z,12.08
2023-05-02T01:19:26.915Z,12.20
2023-05-02T01:21:58.689Z,12.27
2023-05-02T01:24:30.084Z,12.30
2023-05-02T01:27:13.398Z,12.33
2023-05-02T01:29:44.718Z,12.23
2023-05-02T01:32:16.393Z,12.25
2023-05-02T01:34:49.994Z,12.19
2023-05-02T01:37:25.462Z,12.25
2023-05-02T01:39:57.331Z,12.24
2023-05-02T01:42:27.976Z,12.20
2023-05-02T01:44:59.115Z,12.14
2023-05-02T01:47:29.415Z,12.04
2023-05-02T01:49:59.749Z,12.02
2023-05-02T01:52:29.755Z,12.07
2023-05-02T01:55:00.821Z,12.10
2023-05-02T01:57:29.413Z,12.11
2023-05-02T02:00:00.945Z,12.14
2023-05-02T02:02:30.961Z,12.18
2023-05-02T02:04:59.770Z,12.18
2023-05-02T02:07:27.836Z,12.22
2023-05-02T02:09:56.078Z,12.27
2023-05-02T02:12:27.710Z,12.32
2023-05-02T02:15:04.446Z,12.31
2023-05-02T02:17:39.047Z,12.30
2023-05-02T02:20:09.864Z,12.21
2023-05-02T02:22:40.647Z,12.25
2023-05-02T02:25:12.653Z,12.28
2023-05-02T02:27:41.616Z,12.32
2023-05-02T02:30:12.391Z,12.34
2023-05-02T02:32:40.485Z,12.38
2023-05-02T02:35:09.410Z,12.35
2023-05-02T02:37:43.356Z,12.34
2023-05-02T02:40:18.760Z,12.34
2023-05-02T02:43:01.785Z,12.33
2023-05-02T02:45:38.505Z,12.34
2023-05-02T02:48:20.545Z,12.34
2023-05-02T02:54:26.941Z,12.38
2023-05-02T02:57:07.035Z,12.32
2023-05-02T03:00:11.570Z,12.35
2023-05-02T03:02:49.772Z,12.43
2023-05-02T03:05:25.838Z,12.43
2023-05-02T03:07:58.276Z,12.44
2023-05-02T03:10:26.459Z,12.48
2023-05-02T03:12:56.217Z,12.50
2023-05-02T03:16:24.156Z,12.46
2023-05-02T03:18:55.347Z,12.50
2023-05-02T03:21:33.295Z,12.48
2023-05-02T03:24:19.220Z,12.48
2023-05-02T03:26:48.588Z,12.45
2023-05-02T03:29:17.172Z,12.41
2023-05-02T03:31:45.849Z,12.44
2023-05-02T03:34:20.047Z,12.41
2023-05-02T03:36:51.462Z,12.45
2023-05-02T03:39:41.680Z,12.43
2023-05-02T03:42:12.476Z,12.33
2023-05-02T03:44:40.818Z,12.33
2023-05-02T03:47:09.591Z,12.33
2023-05-02T03:49:40.393Z,12.38
2023-05-02T03:52:08.515Z,12.40
2023-05-02T03:54:40.465Z,12.42
2023-05-02T03:57:11.824Z,12.43
2023-05-02T03:59:41.738Z,12.43
2023-05-02T04:02:11.639Z,12.42
2023-05-02T04:04:43.555Z,12.40
2023-05-02T04:07:19.603Z,12.35
2023-05-02T04:09:49.778Z,12.33
2023-05-02T04:12:41.383Z,12.31
2023-05-02T04:15:11.401Z,12.31
2023-05-02T04:17:40.142Z,12.35
2023-05-02T04:20:21.078Z,12.32
2023-05-02T04:22:50.351Z,12.30
2023-05-02T04:25:18.935Z,12.28
2023-05-02T04:27:50.961Z,12.28
2023-05-02T04:30:35.388Z,12.29
2023-05-02T04:33:31.106Z,12.23
2023-05-02T04:36:04.499Z,12.12
2023-05-02T04:38:32.676Z,12.02
2023-05-02T04:43:43.047Z,11.98
2023-05-02T04:46:45.165Z,11.98
2023-05-02T04:49:55.314Z,11.92
2023-05-02T04:52:37.228Z,11.92
2023-05-02T04:55:46.740Z,11.92
2023-05-02T04:58:51.120Z,11.93
2023-05-02T05:01:50.083Z,11.89
2023-05-02T05:04:47.246Z,11.79
2023-05-02T05:07:53.385Z,11.80
2023-05-02T05:10:30.757Z,11.68
2023-05-02T05:13:34.959Z,11.54
2023-05-02T05:16:40.554Z,11.50
2023-05-02T05:19:32.710Z,11.47
2023-05-02T05:25:30.952Z,11.51
2023-05-02T05:28:40.002Z,11.58
2023-05-02T05:31:39.661Z,11.54
2023-05-02T05:34:34.252Z,11.46
2023-05-02T05:37:52.628Z,11.54
2023-05-02T05:40:34.739Z,11.68
2023-05-02T05:43:45.716Z,11.72
2023-05-02T05:46:35.799Z,11.72
2023-05-02T05:49:38.561Z,11.80
2023-05-02T05:52:43.973Z,11.79
2023-05-02T05:55:35.909Z,11.74
2023-05-02T05:58:36.444Z,11.87
2023-05-02T06:01:33.354Z,11.87
2023-05-02T06:04:04.360Z,11.82
2023-05-02T06:06:57.329Z,11.86
2023-05-02T06:09:52.365Z,11.97
2023-05-02T06:12:56.302Z,11.94
2023-05-02T06:15:50.939Z,12.03
2023-05-02T06:18:52.110Z,12.07
2023-05-02T06:21:50.310Z,11.96
2023-05-02T06:24:51.124Z,11.98
2023-05-02T06:27:33.742Z,11.91
2023-05-02T06:30:45.159Z,11.87
2023-05-02T06:37:30.667Z,11.76
2023-05-02T06:40:36.176Z,11.74
2023-05-02T06:43:34.173Z,11.70
2023-05-02T06:46:32.144Z,11.55
2023-05-02T06:49:03.719Z,11.61
2023-05-02T06:51:36.719Z,11.55
2023-05-02T06:54:07.358Z,11.55
2023-05-02T06:56:36.055Z,11.41
2023-05-02T06:59:26.587Z,11.21
2023-05-02T07:01:57.194Z,11.24
2023-05-02T07:04:33.982Z,11.29
2023-05-02T07:07:41.916Z,11.48
2023-05-02T07:10:28.025Z,11.36
2023-05-02T07:12:58.083Z,11.37
2023-05-02T07:15:46.597Z,11.40
2023-05-02T07:18:46.178Z,11.35
2023-05-02T07:21:29.385Z,11.35
2023-05-02T07:23:57.761Z,11.32
2023-05-02T07:26:30.844Z,11.36
2023-05-02T07:28:59.455Z,11.50
2023-05-02T07:34:33.098Z,11.52
2023-05-02T07:37:01.113Z,11.65
2023-05-02T07:39:48.562Z,11.56
2023-05-02T07:42:19.111Z,11.83
2023-05-02T07:44:47.567Z,12.02
2023-05-02T07:47:16.061Z,11.55
2023-05-02T07:49:44.853Z,11.66
2023-05-02T07:52:13.364Z,11.69
2023-05-02T07:54:41.522Z,11.77
2023-05-02T07:57:11.745Z,11.75
2023-05-02T07:59:41.659Z,11.56
2023-05-02T08:02:11.508Z,11.53
2023-05-02T08:04:40.029Z,11.27
2023-05-02T08:07:08.446Z,10.91
2023-05-02T08:09:36.994Z,10.92
2023-05-02T08:12:10.417Z,11.05
2023-05-02T08:14:39.116Z,11.03
2023-05-02T08:17:13.246Z,10.73
2023-05-02T08:19:44.763Z,10.83
2023-05-02T08:22:14.076Z,10.95
2023-05-02T08:24:42.347Z,10.96
2023-05-02T08:27:12.342Z,11.01
2023-05-02T08:29:41.021Z,11.17
2023-05-02T08:32:10.956Z,11.12
2023-05-02T08:34:39.287Z,11.20
2023-05-02T08:37:10.582Z,11.41
2023-05-02T08:39:42.387Z,11.53
2023-05-02T08:42:22.826Z,11.51
2023-05-02T08:44:51.983Z,11.49
2023-05-02T08:47:24.809Z,11.51
2023-05-02T08:49:55.120Z,11.71
2023-05-02T08:52:26.331Z,12.10
2023-05-02T08:54:56.101Z,12.17
2023-05-02T08:57:24.316Z,12.27
2023-05-02T08:59:52.464Z,12.11
2023-05-02T09:02:35.060Z,12.44
2023-05-02T09:05:08.543Z,12.59
2023-05-02T09:07:46.958Z,12.65
2023-05-02T09:10:15.328Z,12.57
2023-05-02T09:12:43.977Z,12.83
2023-05-02T09:15:16.984Z,12.75
2023-05-02T09:17:49.666Z,12.92
2023-05-02T09:20:18.352Z,12.96
2023-05-02T09:22:51.148Z,13.27
2023-05-02T09:25:31.849Z,13.57
2023-05-02T09:28:04.445Z,13.64
2023-05-02T09:30:40.361Z,13.67
2023-05-02T09:33:34.014Z,13.63
2023-05-02T09:36:04.813Z,13.30
2023-05-02T09:38:33.487Z,13.26
2023-05-02T09:41:05.394Z,13.28
2023-05-02T09:43:34.827Z,12.94
2023-05-02T09:46:11.101Z,12.95
2023-05-02T09:49:00.054Z,13.08
2023-05-02T09:51:37.096Z,13.17
2023-05-02T09:54:09.006Z,13.02
2023-05-02T09:56:54.410Z,13.10
2023-05-02T09:59:27.526Z,13.04
2023-05-02T10:02:07.886Z,12.91
2023-05-02T10:04:43.280Z,12.77
2023-05-02T10:07:18.239Z,12.76
2023-05-02T10:09:52.714Z,12.77
2023-05-02T10:12:39.436Z,12.55
2023-05-02T10:15:11.231Z,12.72
2023-05-02T10:17:43.344Z,12.38
2023-05-02T10:20:16.579Z,12.50
2023-05-02T10:22:46.530Z,12.60
2023-05-02T10:25:15.327Z,12.73
2023-05-02T10:27:48.244Z,12.77
2023-05-02T10:30:17.194Z,12.76
2023-05-02T10:32:49.236Z,12.83
2023-05-02T10:35:19.230Z,13.02
2023-05-02T10:37:49.005Z,13.04
2023-05-02T10:40:17.294Z,13.12
2023-05-02T10:42:47.788Z,13.37
2023-05-02T10:45:32.714Z,13.63
2023-05-02T10:48:19.625Z,13.59
2023-05-02T10:50:51.330Z,13.66
2023-05-02T10:53:30.306Z,13.37
2023-05-02T10:56:21.509Z,13.57
2023-05-02T10:58:50.799Z,13.79
2023-05-02T11:01:40.079Z,13.95
2023-05-02T11:04:10.858Z,13.96
2023-05-02T11:07:19.190Z,13.96
2023-05-02T11:09:47.217Z,13.77
2023-05-02T11:12:44.663Z,13.59
2023-05-02T11:15:15.422Z,13.49
2023-05-02T11:18:02.618Z,13.49
2023-05-02T11:20:31.941Z,13.50
2023-05-02T11:23:22.802Z,13.75
2023-05-02T11:25:52.138Z,13.97
2023-05-02T11:28:48.047Z,14.06
2023-05-02T11:31:53.023Z,14.15
2023-05-02T11:34:21.209Z,13.96
2023-05-02T11:36:49.270Z,14.01
2023-05-02T11:39:23.026Z,14.16
2023-05-02T11:41:51.170Z,14.34
2023-05-02T11:44:19.184Z,14.41
2023-05-02T11:46:47.330Z,14.29
2023-05-02T11:49:15.556Z,14.33
2023-05-02T11:51:43.442Z,14.51
2023-05-02T11:54:21.756Z,14.52
2023-05-02T11:56:49.787Z,14.17
2023-05-02T11:59:17.831Z,14.19
2023-05-02T12:01:49.411Z,14.33
2023-05-02T12:04:22.029Z,14.50
2023-05-02T12:06:56.847Z,14.58
2023-05-02T12:09:26.240Z,14.40
2023-05-02T12:11:54.841Z,14.16
2023-05-02T12:14:29.756Z,13.84
2023-05-02T12:16:59.798Z,13.75
2023-05-02T12:19:28.848Z,13.73
2023-05-02T12:21:56.717Z,14.04
2023-05-02T12:24:26.085Z,14.44
2023-05-02T12:27:12.758Z,14.89
2023-05-02T12:29:41.888Z,14.84
2023-05-02T12:32:09.818Z,14.72
2023-05-02T12:34:38.663Z,14.61
2023-05-02T12:37:07.659Z,14.45
2023-05-02T12:39:38.235Z,14.25
2023-05-02T12:42:13.012Z,14.16
2023-05-02T12:44:42.041Z,13.77
2023-05-02T12:47:13.764Z,13.88
2023-05-02T12:49:51.956Z,13.97
2023-05-02T12:52:20.282Z,14.17
2023-05-02T12:54:49.877Z,14.04
2023-05-02T12:57:25.767Z,14.01
2023-05-02T12:59:57.037Z,14.10
2023-05-02T13:02:25.965Z,14.33
2023-05-02T13:04:54.143Z,14.56
2023-05-02T13:07:21.937Z,14.58
2023-05-02T13:09:51.114Z,14.33
2023-05-02T13:12:19.176Z,14.07
2023-05-02T13:14:47.041Z,14.10
2023-05-02T13:17:15.138Z,14.14
2023-05-02T13:20:01.081Z,14.18
2023-05-02T13:22:30.404Z,14.05
2023-05-02T13:25:01.649Z,14.34
2023-05-02T13:27:29.626Z,14.62
2023-05-02T13:29:57.759Z,14.73
2023-05-02T13:32:28.549Z,14.75
2023-05-02T13:34:57.279Z,14.67
2023-05-02T13:37:26.668Z,14.65
2023-05-02T13:39:54.599Z,14.56
2023-05-02T13:42:24.237Z,14.54
2023-05-02T13:44:52.156Z,14.56
2023-05-02T13:47:20.239Z,14.46
2023-05-02T13:49:49.811Z,14.49
2023-05-02T13:52:17.980Z,14.57
2023-05-02T13:54:46.363Z,14.82
2023-05-02T13:57:14.483Z,15.14
2023-05-02T13:59:43.999Z,15.39
2023-05-02T14:02:15.745Z,15.46
2023-05-02T14:04:43.833Z,15.56
2023-05-02T14:07:28.266Z,15.70
2023-05-02T14:10:03.090Z,15.41
2023-05-02T14:12:40.636Z,15.36
2023-05-02T14:15:18.914Z,15.48
2023-05-02T14:17:47.348Z,15.47
2023-05-02T14:20:15.894Z,15.51
2023-05-02T14:22:44.172Z,15.50
2023-05-02T14:25:13.393Z,15.57
2023-05-02T14:27:44.442Z,15.54
2023-05-02T14:30:14.680Z,15.58
2023-05-02T14:32:42.782Z,15.66
2023-05-02T14:35:11.430Z,15.50
2023-05-02T14:37:39.542Z,15.54
2023-05-02T14:40:09.250Z,15.20
2023-05-02T14:42:37.389Z,15.07
2023-05-02T14:45:06.123Z,15.21
2023-05-02T14:47:36.350Z,15.33
2023-05-02T14:50:05.702Z,15.55
2023-05-02T14:52:33.850Z,15.77
2023-05-02T14:55:02.287Z,15.87
2023-05-02T14:57:30.476Z,16.01
2023-05-02T14:59:58.646Z,15.90
2023-05-02T15:02:27.250Z,15.98
2023-05-02T15:04:56.794Z,15.60
2023-05-02T15:07:24.912Z,15.60
2023-05-02T15:09:52.879Z,15.55
2023-05-02T15:12:20.791Z,15.26
2023-05-02T15:14:48.867Z,15.29
2023-05-02T15:17:16.797Z,14.99
2023-05-02T15:19:44.766Z,14.93
2023-05-02T15:22:15.890Z,15.04
2023-05-02T15:24:43.961Z,15.17
2023-05-02T15:27:12.041Z,15.10
2023-05-02T15:29:42.470Z,14.78
2023-05-02T15:32:10.512Z,14.70
2023-05-02T15:34:38.463Z,14.74
2023-05-02T15:37:06.468Z,14.55
2023-05-02T15:39:37.100Z,14.66
2023-05-02T15:42:05.862Z,14.68
2023-05-02T15:44:35.879Z,14.70
2023-05-02T15:47:04.609Z,14.51
2023-05-02T15:49:33.801Z,14.53
2023-05-02T15:52:03.489Z,14.59
2023-05-02T15:54:32.224Z,14.66
2023-05-02T15:57:02.699Z,14.58
2023-05-02T15:59:30.866Z,14.47
2023-05-02T16:01:58.979Z,14.55
2023-05-02T16:04:28.286Z,14.40
2023-05-02T16:06:56.667Z,14.51
2023-05-02T16:09:24.674Z,14.69
2023-05-02T16:11:52.984Z,14.61
2023-05-02T16:14:24.045Z,14.62
2023-05-02T16:16:52.055Z,14.72
2023-05-02T16:19:21.177Z,14.79
2023-05-02T16:21:49.203Z,14.80
2023-05-02T16:24:18.467Z,14.75
2023-05-02T16:26:46.714Z,14.82
2023-05-02T16:29:14.786Z,14.77
2023-05-02T16:31:44.947Z,14.97
2023-05-02T16:34:14.063Z,14.93
2023-05-02T16:36:44.347Z,14.87
2023-05-02T16:39:12.766Z,14.73
2023-05-02T16:41:43.067Z,14.77
2023-05-02T16:44:11.613Z,14.67
2023-05-02T16:46:39.700Z,14.51
2023-05-02T16:49:11.425Z,14.34
2023-05-02T16:51:42.663Z,14.29
2023-05-02T16:54:11.297Z,14.36
2023-05-02T16:56:40.848Z,14.15
2023-05-02T16:59:10.966Z,14.19
2023-05-02T17:01:40.721Z,14.15
2023-05-02T17:04:11.282Z,14.12
2023-05-02T17:06:40.329Z,14.24
2023-05-02T17:09:09.232Z,14.23
2023-05-02T17:11:39.199Z,14.29
2023-05-02T17:14:08.155Z,14.33
2023-05-02T17:16:36.635Z,14.24
2023-05-02T17:19:04.592Z,14.18
2023-05-02T17:21:35.936Z,14.14
2023-05-02T17:24:04.746Z,14.09
2023-05-02T17:26:33.023Z,13.96
2023-05-02T17:29:07.963Z,14.06
2023-05-02T17:31:38.972Z,14.18
2023-05-02T17:34:07.208Z,13.95
2023-05-02T17:36:42.993Z,13.73
2023-05-02T17:39:38.176Z,13.63
2023-05-02T17:42:04.507Z,13.64
2023-05-02T17:50:46.124Z,13.67
2023-05-02T17:53:21.911Z,13.55
2023-05-02T17:55:52.623Z,13.33
2023-05-02T17:58:20.807Z,13.24
2023-05-02T18:00:55.435Z,13.23
2023-05-02T18:06:57.617Z,13.17
2023-05-02T18:09:40.166Z,13.12
2023-05-02T18:12:11.146Z,13.07
2023-05-02T18:14:39.547Z,13.02
2023-05-02T18:17:09.891Z,12.86
2023-05-02T18:19:41.071Z,12.91
2023-05-02T18:22:12.516Z,12.89
2023-05-02T18:24:42.550Z,12.90
2023-05-02T18:27:11.000Z,12.85
2023-05-02T18:29:39.193Z,12.90
2023-05-02T18:32:09.338Z,12.90
2023-05-02T18:34:39.141Z,12.73
2023-05-02T18:37:07.639Z,12.72
2023-05-02T18:39:36.913Z,12.70
2023-05-02T18:42:08.296Z,12.71
2023-05-02T18:44:39.195Z,12.77
2023-05-02T18:47:07.698Z,12.72
2023-05-02T18:49:36.047Z,12.62
2023-05-02T18:52:05.838Z,12.58
2023-05-02T18:54:34.534Z,12.52
2023-05-02T18:57:03.853Z,12.55
2023-05-02T18:59:33.722Z,12.54
2023-05-02T19:02:02.053Z,12.55
2023-05-02T19:04:38.454Z,12.44
2023-05-02T19:07:16.002Z,12.44
2023-05-02T19:09:44.308Z,12.43
2023-05-02T19:12:12.792Z,12.31
2023-05-02T19:14:42.781Z,12.27
2023-05-02T19:17:13.273Z,12.23
2023-05-02T19:19:53.124Z,12.21
2023-05-02T19:22:23.786Z,12.20
2023-05-02T19:24:52.325Z,12.17
2023-05-02T19:27:24.997Z,12.07
2023-05-02T19:29:58.188Z,11.86
2023-05-02T19:32:26.619Z,11.83
2023-05-02T19:34:57.145Z,11.87
2023-05-02T19:37:26.188Z,11.83
2023-05-02T19:40:02.899Z,11.75
2023-05-02T19:42:31.458Z,11.80
2023-05-02T19:45:03.146Z,11.78
2023-05-02T19:47:32.791Z,11.72
2023-05-02T19:50:01.277Z,11.64
2023-05-02T19:52:29.704Z,11.55
2023-05-02T19:54:58.066Z,11.47
2023-05-02T19:57:29.857Z,11.45
2023-05-02T20:00:09.788Z,11.31
2023-05-02T20:02:42.049Z,11.22
2023-05-02T20:05:11.643Z,11.21
2023-05-02T20:07:39.975Z,11.23
2023-05-02T20:10:09.796Z,11.21
2023-05-02T20:12:38.638Z,11.13
2023-05-02T20:15:17.691Z,11.04
2023-05-02T20:17:46.125Z,11.07
2023-05-02T20:20:15.047Z,10.94
2023-05-02T20:22:44.616Z,10.91
2023-05-02T20:25:14.732Z,10.84
2023-05-02T20:27:43.429Z,10.81
2023-05-02T20:30:12.650Z,10.78
2023-05-02T20:32:42.668Z,10.60
2023-05-02T20:35:15.625Z,10.58
2023-05-02T20:37:43.963Z,10.53
2023-05-02T20:40:13.087Z,10.50
2023-05-02T20:42:42.679Z,10.50
2023-05-02T20:45:14.021Z,10.38
2023-05-02T20:47:47.508Z,10.45
2023-05-02T20:50:17.043Z,10.38
2023-05-02T20:52:45.113Z,10.40
2023-05-02T20:55:13.021Z,10.26
2023-05-02T20:57:58.530Z,10.28
2023-05-02T21:01:04.761Z,10.19
2023-05-02T21:03:59.532Z,10.12
2023-05-02T21:06:40.479Z,9.94
2023-05-02T21:10:13.173Z,10.03
2023-05-02T21:13:20.882Z,10.02
2023-05-02T21:16:31.315Z,9.86
2023-05-02T21:18:58.608Z,9.80
2023-05-02T21:21:26.711Z,9.83
2023-05-02T21:23:55.727Z,9.86
2023-05-02T21:26:23.570Z,9.80
2023-05-02T21:28:51.435Z,9.80
2023-05-02T21:31:19.433Z,9.77
2023-05-02T21:33:47.217Z,9.72
2023-05-02T21:36:16.672Z,9.69
2023-05-02T21:38:44.713Z,9.67
2023-05-02T21:41:12.779Z,9.69
2023-05-02T21:43:41.905Z,9.70
2023-05-02T21:46:11.730Z,9.76
2023-05-02T21:48:39.824Z,9.67
2023-05-02T21:51:08.694Z,9.68
2023-05-02T21:53:38.293Z,9.66
2023-05-02T21:56:08.017Z,9.64
2023-05-02T21:58:36.195Z,9.61
2023-05-02T22:01:04.203Z,9.54
2023-05-02T22:03:33.699Z,9.50
2023-05-02T22:06:06.007Z,9.52
2023-05-02T22:08:34.842Z,9.52
2023-05-02T22:11:06.725Z,9.53
2023-05-02T22:13:34.845Z,9.50
2023-05-02T22:16:03.104Z,9.46
2023-05-02T22:18:31.095Z,9.39
2023-05-02T22:20:58.904Z,9.37
2023-05-02T22:23:26.930Z,9.38
2023-05-02T22:25:54.820Z,9.40
2023-05-02T22:28:24.029Z,9.38
2023-05-02T22:30:51.896Z,9.35
2023-05-02T22:33:19.855Z,9.29
2023-05-02T22:35:47.724Z,9.25
2023-05-02T22:38:16.651Z,9.18
2023-05-02T22:40:44.524Z,9.03
2023-05-02T22:43:12.279Z,8.94
2023-05-02T22:45:41.453Z,8.88
2023-05-02T22:48:09.509Z,8.91
2023-05-02T22:50:37.585Z,8.92
2023-05-02T22:53:05.625Z,8.94
2023-05-02T22:55:33.453Z,8.94
2023-05-02T22:58:01.298Z,8.85
2023-05-02T23:00:29.105Z,8.66
2023-05-02T23:02:58.425Z,8.63
2023-05-02T23:05:26.279Z,8.65
2023-05-02T23:07:54.075Z,8.56
2023-05-02T23:10:22.006Z,8.54
2023-05-02T23:12:50.308Z,8.55
2023-05-02T23:15:18.259Z,8.54
2023-05-02T23:17:46.119Z,8.55
2023-05-02T23:20:19.446Z,8.54
2023-05-02T23:22:47.509Z,8.52
2023-05-02T23:25:16.298Z,8.45
2023-05-02T23:27:44.099Z,8.44
2023-05-02T23:30:12.934Z,8.42
2023-05-02T23:32:41.205Z,8.42
2023-05-02T23:35:11.811Z,8.37
2023-05-02T23:37:42.009Z,8.35
2023-05-02T23:40:10.798Z,8.32
2023-05-02T23:42:40.399Z,8.28
2023-05-02T23:45:09.268Z,8.24
2023-05-02T23:47:37.490Z,8.12
2023-05-02T23:50:05.744Z,8.09
2023-05-02T23:52:34.177Z,8.14
2023-05-02T23:55:03.494Z,8.19
2023-05-02T23:57:31.648Z,8.18
2023-05-02T23:59:59.576Z,8.19
